Terminal Aerodrome Forecast
Issued by NWS

Home | Current Version | Previous Version | Text Only | Print | Product List | Glossary On
Versions: 1 2 3 4 5 6 7 8 9 10 11 12 13 14 15 16 17 18 19 20 21
783
FTUS43 KDLH 041358 AAA
TAFBRD
TAF AMD
KBRD 041358Z 0414/0512 27004KT 3SM -SN SCT012 OVC035
      TEMPO 0414/0415 1 1/2SM -SN BKN011
     FM041700 30006KT P6SM FEW015 SCT030
     FM050100 29005KT P6SM SKC=

USA.gov is the U.S. government's official web portal to all federal, state and local government web resources and services.